createdAt,value
2022-07-28T00:01:30.214Z,57.42
2022-07-28T00:04:17.497Z,57.44
2022-07-28T00:07:04.446Z,56.61
2022-07-28T00:09:53.577Z,57.06
2022-07-28T00:12:43.947Z,57.24
2022-07-28T00:15:32.069Z,57.36
2022-07-28T00:18:19.250Z,56.57
2022-07-28T00:21:06.298Z,57.29
2022-07-28T00:23:53.330Z,57.35
2022-07-28T00:26:40.347Z,57.15
2022-07-28T00:29:49.094Z,57.67
2022-07-28T00:32:34.211Z,57.15
2022-07-28T00:35:29.057Z,57.92
2022-07-28T00:38:18.706Z,58.19
2022-07-28T00:41:04.518Z,57.57
2022-07-28T00:43:51.590Z,57.13
2022-07-28T00:46:40.987Z,57.52
2022-07-28T00:49:28.174Z,58.05
2022-07-28T00:52:15.330Z,58.31
2022-07-28T00:55:02.342Z,57.63
2022-07-28T00:57:49.237Z,57.57
2022-07-28T01:00:36.419Z,57.55
2022-07-28T01:03:25.588Z,58.50
2022-07-28T01:06:36.130Z,58.28
2022-07-28T01:09:56.768Z,58.73
2022-07-28T01:12:52.909Z,58.73
2022-07-28T01:15:53.307Z,58.26
2022-07-28T01:18:52.621Z,57.86
2022-07-28T01:21:46.005Z,58.28
2022-07-28T01:24:47.419Z,58.38
2022-07-28T01:27:52.916Z,58.40
2022-07-28T01:30:52.369Z,58.33
2022-07-28T01:33:45.049Z,59.03
2022-07-28T01:36:36.437Z,58.39
2022-07-28T01:39:23.505Z,58.67
2022-07-28T01:42:13.307Z,58.69
2022-07-28T01:45:05.268Z,59.33
2022-07-28T01:47:54.217Z,59.57
2022-07-28T01:50:43.571Z,59.22
2022-07-28T01:53:32.203Z,59.90
2022-07-28T01:56:25.638Z,59.40
2022-07-28T01:59:14.243Z,59.86
2022-07-28T02:02:07.101Z,59.56
2022-07-28T02:04:57.485Z,59.47
2022-07-28T02:07:46.178Z,59.74
2022-07-28T02:10:36.614Z,59.19
2022-07-28T02:13:24.732Z,59.79
2022-07-28T02:16:33.770Z,59.39
2022-07-28T02:19:21.671Z,60.29
2022-07-28T02:22:10.189Z,59.58
2022-07-28T02:24:58.324Z,59.52
2022-07-28T02:27:55.333Z,59.39
2022-07-28T02:30:48.185Z,60.40
2022-07-28T02:33:58.466Z,59.86
2022-07-28T02:36:54.723Z,60.10
2022-07-28T02:40:00.280Z,59.63
2022-07-28T02:42:51.825Z,59.89
2022-07-28T02:45:42.877Z,60.03
2022-07-28T02:48:37.495Z,60.52
2022-07-28T02:51:26.909Z,60.00
2022-07-28T02:54:14.751Z,59.88
2022-07-28T02:57:02.360Z,60.42
2022-07-28T02:59:51.346Z,59.82
2022-07-28T03:02:42.506Z,60.55
2022-07-28T03:05:30.340Z,60.68
2022-07-28T03:08:17.466Z,60.11
2022-07-28T03:11:04.437Z,60.55
2022-07-28T03:13:51.405Z,61.06
2022-07-28T03:16:38.376Z,61.01
2022-07-28T03:19:25.576Z,60.76
2022-07-28T03:22:12.656Z,60.28
2022-07-28T03:25:04.829Z,61.08
2022-07-28T03:27:58.866Z,60.77
2022-07-28T03:30:49.671Z,61.37
2022-07-28T03:33:36.761Z,60.76
2022-07-28T03:36:28.336Z,61.40
2022-07-28T03:39:21.936Z,61.47
2022-07-28T03:42:09.503Z,60.93
2022-07-28T03:44:57.844Z,61.37
2022-07-28T03:47:44.896Z,60.73
2022-07-28T03:50:31.962Z,61.52
2022-07-28T03:53:20.508Z,61.87
2022-07-28T03:56:07.943Z,61.79
2022-07-28T03:58:55.023Z,61.37
2022-07-28T04:01:42.296Z,61.10
2022-07-28T04:04:29.474Z,61.46
2022-07-28T04:07:16.390Z,60.83
2022-07-28T04:10:03.579Z,61.47
2022-07-28T04:12:50.498Z,60.59
2022-07-28T04:15:38.525Z,61.52
2022-07-28T04:18:25.826Z,60.92
2022-07-28T04:21:12.957Z,61.22
2022-07-28T04:24:01.953Z,61.21
2022-07-28T04:26:49.243Z,61.13
2022-07-28T04:29:36.197Z,61.21
2022-07-28T04:32:23.313Z,61.55
2022-07-28T04:35:12.966Z,61.03
2022-07-28T04:38:04.605Z,61.68
2022-07-28T04:40:51.730Z,60.93
2022-07-28T04:43:38.885Z,61.63
2022-07-28T04:46:26.009Z,61.94
2022-07-28T04:49:13.120Z,61.34
2022-07-28T04:52:00.160Z,62.07
2022-07-28T04:54:47.151Z,61.60
2022-07-28T04:57:34.210Z,61.66
2022-07-28T05:00:23.011Z,61.07
2022-07-28T05:03:10.673Z,61.25
2022-07-28T05:05:57.717Z,60.72
2022-07-28T05:08:44.718Z,60.89
2022-07-28T05:11:31.892Z,61.82
2022-07-28T05:14:18.981Z,60.42
2022-07-28T05:17:06.141Z,60.61
2022-07-28T05:19:53.244Z,60.25
2022-07-28T05:22:40.422Z,60.90
2022-07-28T05:25:33.689Z,60.67
2022-07-28T05:28:20.824Z,60.67
2022-07-28T05:31:07.903Z,61.12
2022-07-28T05:33:55.628Z,60.37
2022-07-28T05:36:42.912Z,60.79
2022-07-28T05:39:30.024Z,60.19
2022-07-28T05:42:17.123Z,60.40
2022-07-28T05:45:04.012Z,60.37
2022-07-28T05:48:06.546Z,59.94
2022-07-28T05:50:53.822Z,60.27
2022-07-28T05:53:41.071Z,60.22
2022-07-28T05:56:28.158Z,60.22
2022-07-28T05:59:15.125Z,60.36
2022-07-28T06:02:02.148Z,60.17
2022-07-28T06:04:49.177Z,60.50
2022-07-28T06:07:43.581Z,59.59
2022-07-28T06:10:36.753Z,59.85
2022-07-28T06:13:23.857Z,59.80
2022-07-28T06:16:13.273Z,59.90
2022-07-28T06:19:00.618Z,59.99
2022-07-28T06:21:47.730Z,60.17
2022-07-28T06:24:34.983Z,60.16
2022-07-28T06:27:22.625Z,60.02
2022-07-28T06:30:09.723Z,59.97
2022-07-28T06:32:56.863Z,59.61
2022-07-28T06:35:47.822Z,60.11
2022-07-28T06:38:38.659Z,60.08
2022-07-28T06:41:25.868Z,59.92
2022-07-28T06:44:13.709Z,59.30
2022-07-28T06:47:00.967Z,59.66
2022-07-28T06:49:48.055Z,59.41
2022-07-28T06:52:15.232Z,59.39
2022-07-28T06:54:42.290Z,59.42
2022-07-28T06:57:15.654Z,59.31
2022-07-28T06:59:44.386Z,59.36
2022-07-28T07:02:11.319Z,59.36
2022-07-28T07:04:38.338Z,59.55
2022-07-28T07:07:14.867Z,59.40
2022-07-28T07:09:44.816Z,59.33
2022-07-28T07:12:11.942Z,58.82
2022-07-28T07:14:38.829Z,59.09
2022-07-28T07:17:06.012Z,59.38
2022-07-28T07:19:33.104Z,58.74
2022-07-28T07:22:00.041Z,58.58
2022-07-28T07:24:27.040Z,58.58
2022-07-28T07:26:54.108Z,58.95
2022-07-28T07:29:22.978Z,58.45
2022-07-28T07:31:52.802Z,58.88
2022-07-28T07:34:20.876Z,58.91
2022-07-28T07:36:47.926Z,59.04
2022-07-28T07:39:15.640Z,58.98
2022-07-28T07:41:42.694Z,58.85
2022-07-28T07:44:12.788Z,58.71
2022-07-28T07:46:40.047Z,58.98
2022-07-28T07:49:07.195Z,58.76
2022-07-28T07:51:54.537Z,58.44
2022-07-28T07:54:41.497Z,58.69
2022-07-28T07:57:29.049Z,58.15
2022-07-28T08:00:28.869Z,58.67
2022-07-28T08:03:22.448Z,58.05
2022-07-28T08:06:10.199Z,58.17
2022-07-28T08:08:59.115Z,58.02
2022-07-28T08:11:26.246Z,58.21
2022-07-28T08:13:53.319Z,58.16
2022-07-28T08:16:20.477Z,58.03
2022-07-28T08:18:47.592Z,57.66
2022-07-28T08:21:16.206Z,57.57
2022-07-28T08:23:43.744Z,57.28
2022-07-28T08:26:10.964Z,57.84
2022-07-28T08:28:38.202Z,57.57
2022-07-28T08:31:05.133Z,56.90
2022-07-28T08:33:32.473Z,56.61
2022-07-28T08:36:00.237Z,56.77
2022-07-28T08:38:27.296Z,56.43
2022-07-28T08:40:57.781Z,56.63
2022-07-28T08:43:40.073Z,56.61
2022-07-28T08:46:07.356Z,56.99
2022-07-28T08:48:37.177Z,56.88
2022-07-28T08:51:12.331Z,56.99
2022-07-28T08:53:41.030Z,56.80
2022-07-28T08:56:19.111Z,56.61
2022-07-28T08:58:46.231Z,56.96
2022-07-28T09:01:13.380Z,56.53
2022-07-28T09:03:41.690Z,56.59
2022-07-28T09:06:08.810Z,56.39
2022-07-28T09:08:35.865Z,56.20
2022-07-28T09:11:03.082Z,56.37
2022-07-28T09:13:30.137Z,56.63
2022-07-28T09:15:57.556Z,56.43
2022-07-28T09:18:24.661Z,57.04
2022-07-28T09:20:52.822Z,56.23
2022-07-28T09:23:42.026Z,56.84
2022-07-28T09:26:12.362Z,57.34
2022-07-28T09:28:57.432Z,56.75
2022-07-28T09:31:28.050Z,56.44
2022-07-28T09:34:18.021Z,56.59
2022-07-28T09:36:45.389Z,56.91
2022-07-28T09:39:38.141Z,57.10
2022-07-28T09:42:05.881Z,56.42
2022-07-28T09:44:32.892Z,56.31
2022-07-28T09:47:00.180Z,56.72
2022-07-28T09:49:54.100Z,57.00
2022-07-28T09:52:35.305Z,56.87
2022-07-28T09:55:08.998Z,56.21
2022-07-28T09:57:38.041Z,56.39
2022-07-28T10:00:12.233Z,56.69
2022-07-28T10:02:39.707Z,56.70
2022-07-28T10:05:07.525Z,55.84
2022-07-28T10:07:49.204Z,56.46
2022-07-28T10:10:20.816Z,56.07
2022-07-28T10:12:48.093Z,56.45
2022-07-28T10:15:35.780Z,56.90
2022-07-28T10:18:04.797Z,56.33
2022-07-28T10:20:33.651Z,56.99
2022-07-28T10:23:05.345Z,56.88
2022-07-28T10:25:34.174Z,56.46
2022-07-28T10:28:02.930Z,55.22
2022-07-28T10:30:33.905Z,56.10
2022-07-28T10:33:05.247Z,56.24
2022-07-28T10:35:33.667Z,55.14
2022-07-28T10:38:21.687Z,56.04
2022-07-28T10:40:50.717Z,55.32
2022-07-28T10:43:19.035Z,55.49
2022-07-28T10:46:04.949Z,55.02
2022-07-28T10:48:33.360Z,54.79
2022-07-28T10:51:01.405Z,54.38
2022-07-28T10:53:39.918Z,54.57
2022-07-28T10:56:30.852Z,54.57
2022-07-28T10:59:15.195Z,54.13
2022-07-28T11:01:50.499Z,54.61
2022-07-28T11:04:51.806Z,54.00
2022-07-28T11:07:20.798Z,53.59
2022-07-28T11:09:48.594Z,53.18
2022-07-28T11:12:16.747Z,53.86
2022-07-28T11:14:45.111Z,54.10
2022-07-28T11:17:14.490Z,54.28
2022-07-28T11:20:00.871Z,54.67
2022-07-28T11:22:34.362Z,53.84
2022-07-28T11:25:19.331Z,53.74
2022-07-28T11:27:52.393Z,52.82
2022-07-28T11:30:21.267Z,52.75
2022-07-28T11:32:51.288Z,52.35
2022-07-28T11:35:20.288Z,52.68
2022-07-28T11:38:02.596Z,51.51
2022-07-28T11:40:31.131Z,52.13
2022-07-28T11:43:32.001Z,52.13
2022-07-28T11:46:10.209Z,52.00
2022-07-28T11:48:43.031Z,51.10
2022-07-28T11:51:14.589Z,51.25
2022-07-28T11:53:53.027Z,51.74
2022-07-28T11:56:29.338Z,50.94
2022-07-28T11:59:07.276Z,51.35
2022-07-28T12:01:36.938Z,51.38
2022-07-28T12:04:15.990Z,51.74
2022-07-28T12:06:43.742Z,51.89
2022-07-28T12:09:21.923Z,51.38
2022-07-28T12:11:54.263Z,51.71
2022-07-28T12:14:22.813Z,51.86
2022-07-28T12:16:52.309Z,52.20
2022-07-28T12:19:21.357Z,52.57
2022-07-28T12:21:55.240Z,53.13
2022-07-28T12:24:22.756Z,53.12
2022-07-28T12:26:50.676Z,51.99
2022-07-28T12:29:19.720Z,52.29
2022-07-28T12:31:56.360Z,51.92
2022-07-28T12:34:26.627Z,50.82
2022-07-28T12:37:02.481Z,51.29
2022-07-28T12:39:31.009Z,52.31
2022-07-28T12:42:00.774Z,51.98
2022-07-28T12:44:39.205Z,52.02
2022-07-28T12:47:08.339Z,51.87
2022-07-28T12:49:37.261Z,51.51
2022-07-28T12:52:25.097Z,51.55
2022-07-28T12:54:55.551Z,50.59
2022-07-28T12:57:59.576Z,50.86
2022-07-28T13:00:34.290Z,50.58
2022-07-28T13:03:24.426Z,50.33
2022-07-28T13:06:04.645Z,51.28
2022-07-28T13:08:46.024Z,50.80
2022-07-28T13:14:03.539Z,50.73
2022-07-28T13:16:30.763Z,50.16
2022-07-28T13:19:02.309Z,49.72
2022-07-28T13:21:58.315Z,49.87
2022-07-28T13:24:28.284Z,49.51
2022-07-28T13:26:56.210Z,49.80
2022-07-28T13:29:23.100Z,49.95
2022-07-28T13:32:10.529Z,49.66
2022-07-28T13:34:57.941Z,50.56
2022-07-28T13:37:45.680Z,50.98
2022-07-28T13:40:29.429Z,51.60
2022-07-28T13:42:56.822Z,51.12
2022-07-28T13:45:24.446Z,51.02
2022-07-28T13:47:52.294Z,50.51
2022-07-28T13:50:20.928Z,50.51
2022-07-28T13:52:48.607Z,50.02
2022-07-28T13:55:19.836Z,50.28
2022-07-28T13:57:50.442Z,50.49
2022-07-28T14:00:19.475Z,50.48
2022-07-28T14:02:50.274Z,49.88
2022-07-28T14:05:17.597Z,50.47
2022-07-28T14:07:48.412Z,50.11
2022-07-28T14:10:19.170Z,50.56
2022-07-28T14:12:46.635Z,50.45
2022-07-28T14:15:14.152Z,50.98
2022-07-28T14:17:44.737Z,51.11
2022-07-28T14:20:13.974Z,51.75
2022-07-28T14:22:41.656Z,51.44
2022-07-28T14:25:09.131Z,51.61
2022-07-28T14:27:36.454Z,51.19
2022-07-28T14:30:04.814Z,51.63
2022-07-28T14:32:33.008Z,51.79
2022-07-28T14:35:02.367Z,52.12
2022-07-28T14:37:33.732Z,52.32
2022-07-28T14:40:08.770Z,51.71
2022-07-28T14:42:35.787Z,51.97
2022-07-28T14:45:05.525Z,51.93
2022-07-28T14:47:44.856Z,51.72
2022-07-28T14:50:13.409Z,51.92
2022-07-28T14:52:40.984Z,52.13
2022-07-28T14:55:12.504Z,52.14
2022-07-28T14:57:48.293Z,52.14
2022-07-28T15:00:22.366Z,52.27
2022-07-28T15:02:51.554Z,51.82
2022-07-28T15:05:19.793Z,52.02
2022-07-28T15:07:49.425Z,52.29
2022-07-28T15:10:16.696Z,52.05
2022-07-28T15:12:43.859Z,51.51
2022-07-28T15:15:12.846Z,51.60
2022-07-28T15:17:40.136Z,51.64
2022-07-28T15:20:08.113Z,51.31
2022-07-28T15:22:35.406Z,51.25
2022-07-28T15:25:04.156Z,52.01
2022-07-28T15:27:33.752Z,51.75
2022-07-28T15:30:21.915Z,51.40
2022-07-28T15:33:08.782Z,51.75
2022-07-28T15:35:58.563Z,51.99
2022-07-28T15:38:23.002Z,51.69
2022-07-28T15:40:50.062Z,51.46
2022-07-28T15:43:19.191Z,51.47
2022-07-28T15:45:50.834Z,52.05
2022-07-28T15:48:17.825Z,51.89
2022-07-28T15:50:48.812Z,52.28
2022-07-28T15:53:16.647Z,52.37
2022-07-28T15:55:48.992Z,52.67
2022-07-28T15:58:18.171Z,52.49
2022-07-28T16:00:46.146Z,52.35
2022-07-28T16:03:13.454Z,53.03
2022-07-28T16:05:40.762Z,53.16
2022-07-28T16:08:07.717Z,52.84
2022-07-28T16:10:34.618Z,53.40
2022-07-28T16:13:01.766Z,53.36
2022-07-28T16:15:28.830Z,53.48
2022-07-28T16:17:57.484Z,53.04
2022-07-28T16:20:24.739Z,53.14
2022-07-28T16:22:52.353Z,53.55
2022-07-28T16:25:44.545Z,52.88
2022-07-28T16:28:32.482Z,53.32
2022-07-28T16:31:19.554Z,53.71
2022-07-28T16:34:06.908Z,53.81
2022-07-28T16:36:53.949Z,53.15
2022-07-28T16:39:41.026Z,53.10
2022-07-28T16:42:28.236Z,53.10
2022-07-28T16:45:15.456Z,53.19
2022-07-28T16:48:02.407Z,53.90
2022-07-28T16:50:32.139Z,53.81
2022-07-28T16:52:59.731Z,53.64
2022-07-28T16:55:27.112Z,53.79
2022-07-28T16:57:55.338Z,54.41
2022-07-28T17:00:25.642Z,54.20
2022-07-28T17:02:53.478Z,54.43
2022-07-28T17:05:20.542Z,55.26
2022-07-28T17:07:47.546Z,55.21
2022-07-28T17:10:20.489Z,55.19
2022-07-28T17:13:09.950Z,54.75
2022-07-28T17:15:57.289Z,55.22
2022-07-28T17:18:44.233Z,55.33
2022-07-28T17:21:31.813Z,54.75
2022-07-28T17:24:19.316Z,54.76
2022-07-28T17:30:13.407Z,55.15
2022-07-28T17:33:06.050Z,54.96
2022-07-28T17:35:55.782Z,55.72
2022-07-28T17:38:45.366Z,54.96
2022-07-28T17:41:32.287Z,55.30
2022-07-28T17:44:19.673Z,55.01
2022-07-28T17:47:07.308Z,55.03
2022-07-28T17:49:56.160Z,54.65
2022-07-28T17:52:43.316Z,54.94
2022-07-28T17:55:31.340Z,55.44
2022-07-28T17:58:34.957Z,55.18
2022-07-28T18:01:24.600Z,55.48
2022-07-28T18:04:11.501Z,54.97
2022-07-28T18:06:58.538Z,54.88
2022-07-28T18:09:45.624Z,55.07
2022-07-28T18:12:32.717Z,55.63
2022-07-28T18:15:19.642Z,56.23
2022-07-28T18:18:06.754Z,55.76
2022-07-28T18:20:53.880Z,56.39
2022-07-28T18:23:41.213Z,56.23
2022-07-28T18:26:28.243Z,56.35
2022-07-28T18:29:15.212Z,56.75
2022-07-28T18:32:02.104Z,56.61
2022-07-28T18:34:49.142Z,57.32
2022-07-28T18:37:36.058Z,56.75
2022-07-28T18:40:24.312Z,57.59
2022-07-28T18:43:13.202Z,58.40
2022-07-28T18:46:00.375Z,58.33
2022-07-28T18:48:48.472Z,59.36
2022-07-28T18:51:37.469Z,59.19
2022-07-28T18:54:27.417Z,60.30
2022-07-28T18:57:15.837Z,60.19
2022-07-28T19:00:03.358Z,60.69
2022-07-28T19:02:50.437Z,61.38
2022-07-28T19:05:37.986Z,61.77
2022-07-28T19:08:25.935Z,62.33
2022-07-28T19:11:15.142Z,62.64
2022-07-28T19:14:05.989Z,62.94
2022-07-28T19:16:52.876Z,63.32
2022-07-28T19:19:40.571Z,63.89
2022-07-28T19:22:27.696Z,63.97
2022-07-28T19:25:14.855Z,63.50
2022-07-28T19:28:01.878Z,63.70
2022-07-28T19:30:48.978Z,64.50
2022-07-28T19:33:43.993Z,63.87
2022-07-28T19:36:32.175Z,64.11
2022-07-28T19:39:19.116Z,63.96
2022-07-28T19:42:06.327Z,64.34
2022-07-28T19:44:56.084Z,64.86
2022-07-28T19:47:43.158Z,64.58
2022-07-28T19:50:30.187Z,64.78
2022-07-28T19:53:17.747Z,65.00
2022-07-28T19:56:04.893Z,65.21
2022-07-28T19:58:56.462Z,65.27
2022-07-28T20:01:46.836Z,64.74
2022-07-28T20:04:37.810Z,65.28
2022-07-28T20:07:24.941Z,65.63
2022-07-28T20:10:11.908Z,66.38
2022-07-28T20:12:58.878Z,66.38
2022-07-28T20:15:46.062Z,65.96
2022-07-28T20:18:32.978Z,66.58
2022-07-28T20:21:20.163Z,66.65
2022-07-28T20:24:07.150Z,66.66
2022-07-28T20:26:54.394Z,67.12
2022-07-28T20:29:41.438Z,67.31
2022-07-28T20:32:28.465Z,67.02
2022-07-28T20:35:15.314Z,66.93
2022-07-28T20:38:02.326Z,67.56
2022-07-28T20:40:49.304Z,67.83
2022-07-28T20:43:37.363Z,68.29
2022-07-28T20:46:25.110Z,68.25
2022-07-28T20:49:12.472Z,68.02
2022-07-28T20:51:59.474Z,68.55
2022-07-28T20:54:50.623Z,68.38
2022-07-28T20:57:40.638Z,68.33
2022-07-28T21:00:28.324Z,68.36
2022-07-28T21:03:15.171Z,68.87
2022-07-28T21:06:02.389Z,68.40
2022-07-28T21:08:49.903Z,67.98
2022-07-28T21:11:38.554Z,68.59
2022-07-28T21:14:25.566Z,68.93
2022-07-28T21:17:12.684Z,69.01
2022-07-28T21:19:59.646Z,69.29
2022-07-28T21:22:46.822Z,68.98
2022-07-28T21:25:33.839Z,69.42
2022-07-28T21:28:19.474Z,69.27
2022-07-28T21:31:06.553Z,69.20
2022-07-28T21:33:53.646Z,69.39
2022-07-28T21:36:40.597Z,69.43
2022-07-28T21:39:27.647Z,69.90
2022-07-28T21:42:14.561Z,69.87
2022-07-28T21:45:01.528Z,69.93
2022-07-28T21:47:48.516Z,69.63
2022-07-28T21:50:35.506Z,69.79
2022-07-28T21:53:22.448Z,70.00
2022-07-28T21:56:10.076Z,70.28
2022-07-28T21:58:57.095Z,70.20
2022-07-28T22:01:44.360Z,69.94
2022-07-28T22:04:31.622Z,70.22
2022-07-28T22:07:18.777Z,70.06
2022-07-28T22:10:05.980Z,70.33
2022-07-28T22:12:52.970Z,70.22
2022-07-28T22:15:40.122Z,70.60
2022-07-28T22:18:27.215Z,70.50
2022-07-28T22:21:14.454Z,70.11
2022-07-28T22:24:01.569Z,70.35
2022-07-28T22:26:48.804Z,70.36
2022-07-28T22:29:35.712Z,70.65
2022-07-28T22:32:28.676Z,70.24
2022-07-28T22:35:20.253Z,70.58
2022-07-28T22:38:07.386Z,70.46
2022-07-28T22:40:54.502Z,70.90
2022-07-28T22:43:41.598Z,70.77
2022-07-28T22:46:30.266Z,70.81
2022-07-28T22:49:17.512Z,70.90
2022-07-28T22:52:07.041Z,71.21
2022-07-28T22:54:57.529Z,71.01
2022-07-28T22:57:44.434Z,71.41
2022-07-28T23:00:31.600Z,71.25
2022-07-28T23:03:18.495Z,71.29
2022-07-28T23:06:05.966Z,71.18
2022-07-28T23:08:52.869Z,70.95
2022-07-28T23:11:39.994Z,70.89
2022-07-28T23:14:27.001Z,71.55
2022-07-28T23:17:14.059Z,71.52
2022-07-28T23:20:00.979Z,71.97
2022-07-28T23:22:49.259Z,71.28
2022-07-28T23:25:36.207Z,71.53
2022-07-28T23:28:23.464Z,71.79
2022-07-28T23:31:10.425Z,71.95
2022-07-28T23:33:59.139Z,72.30
2022-07-28T23:36:46.564Z,72.14
2022-07-28T23:39:33.688Z,71.85
2022-07-28T23:42:20.589Z,72.08
2022-07-28T23:45:07.600Z,72.50
2022-07-28T23:47:58.645Z,71.93
2022-07-28T23:50:47.042Z,71.96
2022-07-28T23:53:34.030Z,71.72
2022-07-28T23:56:20.948Z,72.11
2022-07-28T23:59:13.219Z,72.50
